Evnia — 5BJG3 — position and weather

sailwx.info

Track history (hours):
 
Tides and Currents Weather Stations Pressure Air Temp Water Temp Dewpoint Dewpoint Depression Visibility Wind Speed Wind Dir Waves Ship Positions

Evnia

Last reported at 2018-Feb-10 11:24 UTC. Time now 2018-Feb-18 01:45 UTC.
Position N 01°17' E 103°22'.

Length 190 m; draft 12.5 m.

Type: Cargo ship. MMSI: 209279000.

Date/timePositionNaut miles runAvg speedWind from/ knotsBaromVisibWave heightAir tempDewpointWater temp
2018-Feb-10 11:24N 01°17' E 103°22'512.7
2018-Feb-10 10:58N 01°14' E 103°26'612.5
2018-Feb-10 10:30N 01°12' E 103°32'612.3
2018-Feb-10 10:01N 01°11' E 103°38'611.5
2018-Feb-10 09:30N 01°09' E 103°43'611.1
2018-Feb-10 09:00N 01°11' E 103°48'611.7
2018-Feb-10 08:30N 01°13' E 103°54'611.2
2018-Feb-10 08:00N 01°15' E 103°59'4 7.1
2018-Feb-10 07:29N 01°17' E 104°02'1 0.3
2018-Feb-10 04:26N 01°18' E 104°01'0 0.0
2018-Feb-10 03:56N 01°18' E 104°01'  
2018-Feb-04 01:04N 22°20' E 119°43'112.6
2018-Feb-04 00:58N 22°21' E 119°43'713.1
2018-Feb-04 00:25N 22°28' E 119°44'5313.1
2018-Feb-03 20:22N 23°20' E 119°54'615.2
2018-Feb-03 20:00N 23°26' E 119°55'  
Track history (hours):
 
Tides and Currents Weather Stations Pressure Air Temp Water Temp Dewpoint Dewpoint Depression Visibility Wind Speed Wind Dir Waves Ship Positions

Evnia

Last reported at 2018-Feb-10 11:24 UTC. Time now 2018-Feb-18 01:45 UTC.
Position N 01°17' E 103°22'.

Length 190 m; draft 12.5 m.

Type: Cargo ship. MMSI: 209279000.

Date/timePositionNaut miles runAvg speedWind from/ knotsBaromVisibWave heightAir tempDewpointWater temp
2018-Feb-10 11:24N 01°17' E 103°22'512.7
2018-Feb-10 10:58N 01°14' E 103°26'612.5
2018-Feb-10 10:30N 01°12' E 103°32'612.3
2018-Feb-10 10:01N 01°11' E 103°38'611.5
2018-Feb-10 09:30N 01°09' E 103°43'611.1
2018-Feb-10 09:00N 01°11' E 103°48'611.7
2018-Feb-10 08:30N 01°13' E 103°54'611.2
2018-Feb-10 08:00N 01°15' E 103°59'4 7.1
2018-Feb-10 07:29N 01°17' E 104°02'1 0.3
2018-Feb-10 04:26N 01°18' E 104°01'0 0.0
2018-Feb-10 03:56N 01°18' E 104°01'  
2018-Feb-04 01:04N 22°20' E 119°43'112.6
2018-Feb-04 00:58N 22°21' E 119°43'713.1
2018-Feb-04 00:25N 22°28' E 119°44'5313.1
2018-Feb-03 20:22N 23°20' E 119°54'615.2
2018-Feb-03 20:00N 23°26' E 119°55'  

Dump ship's entire track history